Latest Weather Observations for Coen Airport

IDQ60801

Issued at 2:02 pm EST Sunday 29 May 2016 (issued every 30 minutes, with the page automatically refreshed every 10 minutes)

About weather observations | Map of weather stations | Latest weather observations for QLD | Other Formats
Station Details ID: 027073 Name: COEN AIRPORT Lat: -13.76 Lon: 143.12 Height: 159.3 m
Data from the previous 72 hours. | See also: Recent months at Coen Airport
Date/Time
EST
Temp
°C
App
Temp
°C
Dew
Point
Rel
Hum
%
Delta-T
°C
Wind Press
QNH
hPa
Press
MSL
hPa
Rain
since 9 am
mm
Dir
 
Spd
km/h
Gust
km/h
Spd
kts
Gust
kts
29/02:00pm 30.8 30.5 18.2 47 8.1 ESE 17 28 9 15 1013.8 - 0.0
29/01:30pm 31.3 31.8 19.3 49 7.9 ENE 15 28 8 15 1013.9 - 0.0
29/01:00pm 31.0 31.3 19.7 51 7.5 ENE 17 26 9 14 1014.2 - 0.0
29/12:30pm 31.1 31.8 20.4 53 7.1 ENE 17 30 9 16 1014.5 - 0.0
29/12:00pm 30.8 31.8 21.0 56 6.6 ESE 17 24 9 13 1015.0 1014.2 0.0
29/11:30am 30.4 32.4 22.3 62 5.5 ENE 15 26 8 14 1015.2 - 0.0
29/11:00am 30.1 32.2 22.5 63 5.2 ENE 15 24 8 13 1015.4 - 0.0
29/10:30am 29.9 34.1 24.1 71 4.0 E 9 17 5 9 1015.6 - 0.0
29/10:00am 28.1 32.6 23.7 77 3.0 ESE 6 11 3 6 1015.8 - 0.0
29/09:30am 27.2 32.9 23.7 81 2.4 CALM 0 6 0 3 1016.0 - 0.0
29/09:00am 25.4 30.1 22.7 85 1.8 S 2 6 1 3 1015.8 1015.0 0.4
29/08:30am 24.2 29.0 22.1 88 1.4 CALM 0 0 0 0 1015.8 - 0.4
29/08:00am 22.3 25.2 20.6 90 1.1 S 6 7 3 4 1015.8 - 0.4
29/07:30am 21.2 23.4 19.7 91 1.0 S 7 9 4 5 1015.3 - 0.4
29/07:00am 20.0 21.7 18.5 91 0.9 SSE 7 11 4 6 1014.8 - 0.4
29/06:30am 19.7 21.4 18.0 90 1.1 SSE 6 7 3 4 1014.3 - 0.4
29/06:00am 19.5 22.2 17.8 90 1.1 CALM 0 0 0 0 1014.1 1013.3 0.4
29/05:30am 19.6 22.3 17.7 89 1.2 CALM 0 0 0 0 1013.8 - 0.4
29/05:00am 20.0 22.9 18.1 89 1.2 CALM 0 0 0 0 1013.6 - 0.4
29/04:30am 20.3 22.1 18.4 89 1.2 SSE 6 9 3 5 1013.4 - 0.4
29/04:00am 20.2 21.9 18.1 88 1.3 S 6 9 3 5 1013.3 - 0.4
29/03:30am 20.4 23.3 18.3 88 1.3 CALM 0 0 0 0 1013.2 - 0.4
29/03:00am 20.5 21.8 18.4 88 1.3 SSE 9 11 5 6 1013.1 1012.3 0.4
29/02:30am 20.5 21.7 18.3 87 1.4 SSE 9 11 5 6 1013.2 - 0.4
29/02:00am 20.6 22.3 18.4 87 1.4 SSE 7 9 4 5 1013.3 - 0.4
29/01:30am 20.9 22.7 18.7 87 1.4 SSE 7 9 4 5 1013.4 - 0.4
29/01:00am 20.8 22.6 18.4 86 1.5 S 6 7 3 4 1013.5 - 0.4
29/12:30am 21.0 22.9 18.6 86 1.5 SE 6 7 3 4 1013.7 - 0.4
29/12:00am 21.5 24.7 18.9 85 1.6 CALM 0 0 0 0 1014.0 1013.2 0.4
 
Date/Time
EST
Temp
°C
App
Temp
°C
Dew
Point
Rel
Hum
%
Delta-T
°C
Wind Press
QNH
hPa
Press
MSL
hPa
Rain
since 9 am
mm
Dir
 
Spd
km/h
Gust
km/h
Spd
kts
Gust
kts
28/11:30pm 21.5 24.6 18.7 84 1.8 CALM 0 0 0 0 1014.1 - 0.4
28/11:00pm 21.7 24.8 18.7 83 1.9 CALM 0 2 0 1 1014.2 - 0.4
28/10:30pm 22.7 26.2 19.5 82 2.1 CALM 0 6 0 3 1014.3 - 0.4
28/10:00pm 22.9 25.2 19.9 83 1.9 NE 7 9 4 5 1014.4 - 0.4
28/09:30pm 22.8 25.2 19.6 82 2.1 NNE 6 7 3 4 1014.3 - 0.4
28/09:00pm 23.2 26.7 19.6 80 2.3 CALM 0 6 0 3 1014.2 1013.4 0.4
28/08:30pm 24.3 27.1 20.4 79 2.6 NNE 6 6 3 3 1014.1 - 0.4
28/08:00pm 24.7 27.6 20.6 78 2.7 NE 6 9 3 5 1013.7 - 0.4
28/07:30pm 25.3 27.4 21.0 77 2.8 NNE 11 15 6 8 1013.5 - 0.4
28/07:00pm 25.6 27.9 20.6 74 3.3 NNE 9 13 5 7 1013.3 - 0.4
28/06:30pm 26.2 28.4 20.5 71 3.8 NE 9 15 5 8 1013.1 - 0.4
28/06:00pm 27.5 29.1 20.8 67 4.5 NE 13 19 7 10 1012.8 1012.0 0.4
28/05:30pm 28.1 29.8 20.9 65 4.8 NNE 13 17 7 9 1012.6 - 0.4
28/05:00pm 29.6 30.7 21.3 61 5.6 NNE 17 26 9 14 1012.3 - 0.4
28/04:30pm 30.6 31.7 21.9 59 5.9 NNE 19 26 10 14 1012.0 - 0.4
28/04:00pm 30.1 31.7 21.5 60 5.8 NNE 15 24 8 13 1012.1 - 0.4
28/03:30pm 32.1 33.9 22.5 57 6.6 NE 17 24 9 13 1012.1 - 0.4
28/03:00pm 32.4 34.5 22.5 56 6.8 ENE 15 20 8 11 1012.2 1011.4 0.4
28/02:30pm 32.1 34.6 23.1 59 6.2 NE 15 22 8 12 1012.3 - 0.4
28/02:00pm 32.3 36.2 24.9 65 5.2 N 13 22 7 12 1012.6 - 0.4
28/01:30pm 29.5 34.8 23.7 71 4.0 NE 2 9 1 5 1012.9 - 0.4
28/01:00pm 28.3 30.8 22.5 71 4.0 SE 13 20 7 11 1013.6 - 0.2
28/12:30pm 31.5 35.7 24.1 65 5.2 ENE 9 17 5 9 1013.9 - 0.2
28/12:00pm 31.3 35.7 24.4 66 4.8 NNE 9 20 5 11 1014.4 - 0.2
28/11:30am 30.9 34.8 24.8 70 4.3 N 13 20 7 11 1014.7 - 0.2
28/11:00am 29.8 33.6 24.7 74 3.6 NNE 13 20 7 11 1015.1 - 0.2
28/10:30am 29.3 34.1 25.1 78 3.0 ENE 9 17 5 9 1015.2 - 0.0
28/10:00am 28.0 32.9 24.6 82 2.4 E 7 13 4 7 1015.8 - 0.0
28/09:30am 26.8 31.0 24.1 85 1.9 NE 9 13 5 7 1015.7 - 0.0
28/09:00am 25.6 30.0 23.5 88 1.4 NNE 6 9 3 5 1015.7 1014.9 0.6
28/08:30am 23.8 27.9 22.2 91 1.1 NNW 4 9 2 5 1015.6 - 0.6
28/08:00am 22.8 26.0 21.6 93 0.8 NNE 7 9 4 5 1015.3 - 0.6
28/07:30am 21.8 24.9 21.0 95 0.5 NE 6 9 3 5 1015.1 - 0.6
28/07:00am 21.1 23.7 20.4 96 0.5 S 7 11 4 6 1014.9 - 0.6
28/06:30am 20.9 22.6 20.1 95 0.5 SSE 11 13 6 7 1014.9 - 0.6
28/06:00am 20.8 23.2 20.0 95 0.5 SSE 7 9 4 5 1014.7 1013.9 0.6
28/05:30am 20.9 22.9 19.9 94 0.6 ESE 9 13 5 7 1014.2 - 0.6
28/05:00am 21.1 23.5 20.1 94 0.6 SE 7 11 4 6 1014.3 - 0.6
28/04:30am 21.8 24.6 20.8 94 0.7 ESE 7 11 4 6 1014.1 - 0.6
28/04:00am 22.3 25.0 21.3 94 0.7 ESE 9 11 5 6 1014.0 - 0.6
28/03:30am 22.4 25.4 21.2 93 0.8 ESE 7 9 4 5 1013.9 - 0.6
28/03:00am 22.3 25.2 21.1 93 0.8 SSE 7 9 4 5 1014.0 1013.2 0.6
28/02:30am 22.0 24.6 20.5 91 1.0 ESE 7 9 4 5 1013.9 - 0.6
28/02:00am 22.2 26.2 20.5 90 1.1 CALM 0 0 0 0 1014.0 - 0.6
28/01:30am 22.0 25.1 20.3 90 1.1 WNW 4 7 2 4 1014.0 - 0.6
28/01:00am 21.8 25.4 19.7 88 1.3 CALM 0 0 0 0 1014.2 - 0.6
28/12:30am 22.3 26.1 20.2 88 1.4 CALM 0 0 0 0 1014.3 - 0.6
28/12:00am 22.7 26.7 20.6 88 1.4 CALM 0 0 0 0 1014.1 1013.3 0.6
 
Date/Time
EST
Temp
°C
App
Temp
°C
Dew
Point
Rel
Hum
%
Delta-T
°C
Wind Press
QNH
hPa
Press
MSL
hPa
Rain
since 9 am
mm
Dir
 
Spd
km/h
Gust
km/h
Spd
kts
Gust
kts
27/11:30pm 22.7 25.5 20.4 87 1.5 N 6 7 3 4 1014.3 - 0.6
27/11:00pm 23.1 27.2 20.8 87 1.5 CALM 0 0 0 0 1014.3 - 0.6
27/10:30pm 23.3 26.3 20.8 86 1.6 N 6 9 3 5 1014.3 - 0.6
27/10:00pm 23.6 27.9 21.1 86 1.6 CALM 0 2 0 1 1014.1 - 0.6
27/09:30pm 23.9 27.1 21.2 85 1.8 N 6 7 3 4 1014.1 - 0.6
27/09:00pm 24.2 26.9 21.3 84 1.9 N 9 11 5 6 1014.1 1013.3 0.6
27/08:30pm 24.4 27.9 21.1 82 2.2 N 4 7 2 4 1013.7 - 0.4
27/08:00pm 24.3 28.4 20.8 81 2.3 CALM 0 0 0 0 1013.6 - 0.4
27/07:30pm 24.7 28.9 21.0 80 2.4 CALM 0 0 0 0 1013.0 - 0.4
27/07:00pm 25.4 30.0 21.7 80 2.5 CALM 0 0 0 0 1012.6 - 0.4
27/06:30pm 25.8 30.4 21.7 78 2.7 CALM 0 4 0 2 1012.5 - 0.4
27/06:00pm 25.9 28.2 21.3 76 3.1 NE 11 15 6 8 1012.2 1011.4 0.4
27/05:30pm 26.3 30.1 21.7 76 3.1 S 4 7 2 4 1012.4 - 0.4
27/05:00pm 26.2 28.8 21.2 74 3.3 E 9 13 5 7 1012.0 - 0.2
27/04:30pm 25.9 26.3 20.7 73 3.4 ESE 19 26 10 14 1011.8 - 0.2
27/04:00pm 29.5 29.7 20.1 57 6.2 ESE 19 30 10 16 1011.6 - 0.0
27/03:30pm 33.0 35.5 21.8 51 7.6 NNE 11 17 6 9 1011.4 - 0.0
27/03:00pm 32.6 35.5 22.4 55 7.0 ENE 11 17 6 9 1011.5 1010.7 0.0
27/02:30pm 33.1 36.7 23.1 55 6.9 NNE 9 15 5 8 1011.8 - 0.0
27/02:00pm 32.0 34.9 22.4 57 6.6 N 11 15 6 8 1012.3 - 0.0
27/01:30pm 32.3 36.7 23.8 61 5.9 SSW 7 11 4 6 1012.6 - 0.0
27/01:00pm 30.8 34.2 22.7 62 5.6 S 9 13 5 7 1013.2 - 0.0
27/12:30pm 30.8 34.9 22.9 62 5.4 E 6 13 3 7 1013.7 - 0.0
27/12:00pm 30.4 33.5 22.8 64 5.2 NNE 11 17 6 9 1014.2 1013.4 0.0
27/11:30am 31.3 35.7 24.4 66 4.8 NE 9 15 5 8 1014.5 - 0.0
27/11:00am 30.3 34.3 24.4 70 4.1 N 11 17 6 9 1015.0 - 0.0
27/10:30am 29.6 34.3 24.9 76 3.3 E 9 17 5 9 1015.3 - 0.0
27/10:00am 28.4 33.5 24.6 80 2.7 ENE 6 11 3 6 1015.6 - 0.0
27/09:30am 27.2 31.8 24.1 83 2.2 NNE 7 11 4 6 1015.8 - 0.0
27/09:00am 25.9 31.1 23.6 87 1.6 S 2 7 1 4 1015.6 1014.8 0.0
27/08:30am 24.6 29.8 22.8 90 1.2 CALM 0 6 0 3 1015.5 - 0.0
27/08:00am 23.0 26.2 21.6 92 0.9 SE 7 7 4 4 1015.4 - 0.0
27/07:30am 21.8 24.6 20.8 94 0.7 SSE 7 9 4 5 1015.1 - 0.0
27/07:00am 20.3 22.3 19.1 93 0.8 SE 7 7 4 4 1014.7 - 0.0
27/06:30am 20.3 23.6 19.0 92 0.8 CALM 0 6 0 3 1014.4 - 0.0
27/06:00am 20.3 22.7 18.8 91 0.9 SSE 4 7 2 4 1014.1 1013.3 0.0
27/05:30am 20.6 23.9 19.1 91 1.0 CALM 0 0 0 0 1014.0 - 0.0
27/05:00am 20.7 24.0 19.0 90 1.1 CALM 0 6 0 3 1014.0 - 0.0
27/04:30am 20.8 24.1 19.1 90 1.1 CALM 0 0 0 0 1013.9 - 0.0
27/04:00am 21.1 24.5 19.4 90 1.1 CALM 0 0 0 0 1013.6 - 0.0
27/03:30am 20.8 23.2 18.9 89 1.2 S 4 7 2 4 1013.5 - 0.0
27/03:00am 20.9 24.2 19.0 89 1.2 CALM 0 0 0 0 1013.7 1012.9 0.0
27/02:30am 21.2 24.5 19.1 88 1.3 CALM 0 0 0 0 1013.7 - 0.0
27/02:00am 21.3 24.6 19.2 88 1.3 CALM 0 0 0 0 1013.8 - 0.0
27/01:30am 21.4 24.7 19.1 87 1.5 CALM 0 0 0 0 1013.9 - 0.0
27/01:00am 21.9 25.0 19.6 87 1.5 SSW 2 7 1 4 1014.0 - 0.0
27/12:30am 22.0 25.6 19.7 87 1.5 CALM 0 0 0 0 1014.1 - 0.0
27/12:00am 22.0 25.5 19.5 86 1.6 CALM 0 0 0 0 1013.9 1013.1 0.0
 
Date/Time
EST
Temp
°C
App
Temp
°C
Dew
Point
Rel
Hum
%
Delta-T
°C
Wind Press
QNH
hPa
Press
MSL
hPa
Rain
since 9 am
mm
Dir
 
Spd
km/h
Gust
km/h
Spd
kts
Gust
kts
26/11:30pm 22.2 25.7 19.6 85 1.7 CALM 0 0 0 0 1014.0 - 0.0
26/11:00pm 23.0 26.8 20.1 84 1.9 CALM 0 0 0 0 1014.0 - 0.0
26/10:30pm 23.5 26.4 20.6 84 1.9 NE 6 7 3 4 1014.2 - 0.0
26/10:00pm 23.3 25.9 20.4 84 1.9 N 7 11 4 6 1014.5 - 0.0
26/09:30pm 23.2 25.8 20.0 82 2.1 N 6 9 3 5 1014.4 - 0.0
26/09:00pm 23.8 26.4 20.5 82 2.2 N 7 11 4 6 1014.4 1013.6 0.0
26/08:30pm 24.1 26.4 20.6 81 2.3 NNE 9 13 5 7 1014.4 - 0.0
26/08:00pm 24.3 27.0 20.6 80 2.4 NNE 7 11 4 6 1014.0 - 0.0
26/07:30pm 24.7 26.2 20.6 78 2.7 NNE 13 17 7 9 1013.5 - 0.0
26/07:00pm 25.3 26.9 20.8 76 3.0 NE 13 22 7 12 1012.9 - 0.0
26/06:30pm 25.7 27.7 20.7 74 3.3 NE 11 13 6 7 1012.6 - 0.0
26/06:00pm 26.6 27.8 20.7 70 3.9 NNE 15 22 8 12 1012.5 1011.7 0.0
26/05:30pm 27.8 29.1 20.9 66 4.6 NE 15 20 8 11 1012.3 - 0.0
26/05:00pm 28.9 30.1 21.4 64 5.0 NE 17 24 9 13 1012.2 - 0.0
26/04:30pm 29.9 31.3 21.8 62 5.5 NE 17 24 9 13 1012.0 - 0.0
26/04:00pm 30.0 31.0 21.7 61 5.6 NE 19 26 10 14 1012.1 - 0.0
26/03:30pm 30.8 32.1 22.7 62 5.6 NNE 20 28 11 15 1012.3 - 0.0
26/03:00pm 31.2 32.6 22.8 61 5.8 NE 20 30 11 16 1012.5 1011.7 0.0
26/02:30pm 31.2 32.6 22.5 60 6.0 NE 19 26 10 14 1012.6 - 0.0

Other Formats:

Comma delimited format used in spreadsheet applications
http://www.bom.gov.au/fwo/IDQ60801/IDQ60801.94183.axf

JavaScript Object Notation format (JSON) in row-major order
http://www.bom.gov.au/fwo/IDQ60801/IDQ60801.94183.json